createdAt,value
2023-05-19T00:02:22.449Z,40.16
2023-05-19T00:04:49.803Z,40.57
2023-05-19T00:07:19.638Z,40.57
2023-05-19T00:09:46.869Z,40.16
2023-05-19T00:12:13.968Z,40.49
2023-05-19T00:14:40.852Z,40.24
2023-05-19T00:17:07.942Z,40.67
2023-05-19T00:19:34.547Z,40.65
2023-05-19T00:22:01.144Z,40.43
2023-05-19T00:24:27.929Z,40.24
2023-05-19T00:26:54.575Z,40.28
2023-05-19T00:29:21.245Z,40.45
2023-05-19T00:31:47.964Z,40.18
2023-05-19T00:34:14.776Z,40.42
2023-05-19T00:36:41.675Z,40.32
2023-05-19T00:39:08.472Z,40.27
2023-05-19T00:41:35.360Z,40.55
2023-05-19T00:44:02.137Z,40.35
2023-05-19T00:46:30.400Z,40.13
2023-05-19T00:48:57.172Z,40.20
2023-05-19T00:51:26.397Z,40.03
2023-05-19T00:53:53.271Z,40.52
2023-05-19T00:56:20.990Z,40.24
2023-05-19T00:58:48.170Z,40.16
2023-05-19T01:01:17.307Z,40.34
2023-05-19T01:03:45.176Z,40.27
2023-05-19T01:06:12.807Z,40.58
2023-05-19T01:08:39.757Z,40.21
2023-05-19T01:11:07.382Z,40.13
2023-05-19T01:13:35.468Z,40.17
2023-05-19T01:16:27.132Z,39.91
2023-05-19T01:19:50.717Z,40.28
2023-05-19T01:22:29.377Z,40.15
2023-05-19T01:25:19.954Z,40.44
2023-05-19T01:28:24.127Z,40.05
2023-05-19T01:30:55.579Z,40.24
2023-05-19T01:33:23.493Z,39.83
2023-05-19T01:35:50.987Z,39.85
2023-05-19T01:38:19.153Z,40.23
2023-05-19T01:40:46.178Z,40.29
2023-05-19T01:43:18.166Z,40.13
2023-05-19T01:45:45.868Z,40.30
2023-05-19T01:48:13.342Z,40.43
2023-05-19T01:50:41.229Z,39.95
2023-05-19T01:53:08.189Z,40.32
2023-05-19T01:55:45.077Z,40.27
2023-05-19T01:58:46.276Z,40.17
2023-05-19T02:01:30.898Z,40.23
2023-05-19T02:04:13.782Z,40.30
2023-05-19T02:06:50.149Z,40.21
2023-05-19T02:09:34.929Z,39.83
2023-05-19T02:12:09.259Z,39.79
2023-05-19T02:14:43.703Z,40.08
2023-05-19T02:17:13.042Z,40.14
2023-05-19T02:19:42.461Z,40.32
2023-05-19T02:22:09.530Z,39.71
2023-05-19T02:24:37.675Z,40.10
2023-05-19T02:27:04.505Z,39.80
2023-05-19T02:29:31.114Z,40.23
2023-05-19T02:31:58.664Z,40.18
2023-05-19T02:34:25.559Z,39.92
2023-05-19T02:36:52.307Z,40.23
2023-05-19T02:39:18.958Z,39.67
2023-05-19T02:41:45.642Z,39.75
2023-05-19T02:44:12.298Z,39.95
2023-05-19T02:46:38.987Z,40.12
2023-05-19T02:49:05.603Z,40.04
2023-05-19T02:51:32.240Z,39.66
2023-05-19T02:53:59.043Z,39.82
2023-05-19T02:56:26.360Z,39.69
2023-05-19T02:58:53.056Z,40.08
2023-05-19T03:01:22.105Z,40.12
2023-05-19T03:03:49.061Z,40.02
2023-05-19T03:06:17.973Z,39.66
2023-05-19T03:08:45.068Z,40.10
2023-05-19T03:11:11.780Z,39.72
2023-05-19T03:13:38.389Z,39.55
2023-05-19T03:16:05.262Z,39.97
2023-05-19T03:18:31.916Z,39.70
2023-05-19T03:20:58.645Z,39.67
2023-05-19T03:23:26.466Z,39.91
2023-05-19T03:25:56.310Z,39.62
2023-05-19T03:28:23.461Z,39.58
2023-05-19T03:30:53.442Z,39.70
2023-05-19T03:33:25.073Z,40.00
2023-05-19T03:35:52.966Z,39.67
2023-05-19T03:38:20.012Z,39.98
2023-05-19T03:40:55.635Z,40.01
2023-05-19T03:43:22.317Z,40.06
2023-05-19T03:45:54.623Z,39.80
2023-05-19T03:48:44.289Z,39.92
2023-05-19T03:51:22.920Z,39.65
2023-05-19T03:53:52.654Z,39.58
2023-05-19T03:56:20.692Z,39.86
2023-05-19T03:58:48.401Z,39.65
2023-05-19T04:01:15.270Z,39.71
2023-05-19T04:03:42.002Z,39.94
2023-05-19T04:06:08.836Z,40.09
2023-05-19T04:08:35.547Z,40.08
2023-05-19T04:11:02.505Z,40.07
2023-05-19T04:13:29.471Z,39.72
2023-05-19T04:15:56.288Z,40.08
2023-05-19T04:18:23.074Z,39.62
2023-05-19T04:20:49.710Z,40.07
2023-05-19T04:23:16.349Z,40.08
2023-05-19T04:25:43.892Z,39.72
2023-05-19T04:28:10.573Z,39.71
2023-05-19T04:30:38.602Z,40.16
2023-05-19T04:33:05.535Z,40.19
2023-05-19T04:35:32.203Z,39.79
2023-05-19T04:38:01.649Z,39.84
2023-05-19T04:40:31.714Z,40.21
2023-05-19T04:42:59.030Z,40.08
2023-05-19T04:45:26.094Z,39.87
2023-05-19T04:50:25.179Z,40.32
2023-05-19T04:52:52.459Z,40.11
2023-05-19T04:55:19.581Z,40.13
2023-05-19T04:57:47.801Z,39.87
2023-05-19T05:00:15.475Z,39.94
2023-05-19T05:02:52.549Z,40.44
2023-05-19T05:05:21.179Z,40.46
2023-05-19T05:07:47.836Z,40.00
2023-05-19T05:10:14.997Z,40.51
2023-05-19T05:12:42.118Z,40.66
2023-05-19T05:15:09.617Z,40.80
2023-05-19T05:17:37.646Z,40.74
2023-05-19T05:20:06.358Z,40.67
2023-05-19T05:22:33.543Z,40.26
2023-05-19T05:25:01.832Z,40.76
2023-05-19T05:27:28.818Z,40.61
2023-05-19T05:29:56.472Z,40.83
2023-05-19T05:32:26.326Z,40.88
2023-05-19T05:34:53.201Z,40.49
2023-05-19T05:37:19.817Z,40.59
2023-05-19T05:39:46.462Z,40.54
2023-05-19T05:42:13.665Z,40.72
2023-05-19T05:44:40.728Z,40.95
2023-05-19T05:47:08.913Z,40.93
2023-05-19T05:49:38.447Z,40.57
2023-05-19T05:52:07.034Z,41.18
2023-05-19T05:54:41.225Z,41.17
2023-05-19T05:57:09.106Z,41.50
2023-05-19T05:59:36.052Z,41.03
2023-05-19T06:02:02.805Z,41.34
2023-05-19T06:04:29.583Z,41.04
2023-05-19T06:07:01.742Z,41.08
2023-05-19T06:09:32.999Z,41.04
2023-05-19T06:12:02.717Z,41.11
2023-05-19T06:14:34.709Z,41.16
2023-05-19T06:17:09.941Z,41.32
2023-05-19T06:19:36.656Z,41.30
2023-05-19T06:22:03.360Z,40.87
2023-05-19T06:24:30.926Z,41.13
2023-05-19T06:26:57.643Z,40.97
2023-05-19T06:29:24.335Z,41.33
2023-05-19T06:31:53.118Z,41.49
2023-05-19T06:34:21.103Z,41.42
2023-05-19T06:36:47.772Z,41.62
2023-05-19T06:39:15.465Z,41.36
2023-05-19T06:41:42.160Z,41.54
2023-05-19T06:44:11.883Z,41.43
2023-05-19T06:46:38.616Z,41.75
2023-05-19T06:49:05.396Z,41.89
2023-05-19T06:51:37.253Z,41.78
2023-05-19T06:54:04.382Z,41.42
2023-05-19T06:56:31.047Z,41.62
2023-05-19T06:58:58.374Z,41.68
2023-05-19T07:01:32.217Z,41.31
2023-05-19T07:04:00.531Z,41.40
2023-05-19T07:06:27.847Z,41.26
2023-05-19T07:08:54.641Z,41.84
2023-05-19T07:11:21.680Z,41.80
2023-05-19T07:13:48.683Z,41.46
2023-05-19T07:16:21.188Z,41.85
2023-05-19T07:18:47.880Z,41.55
2023-05-19T07:21:14.721Z,41.93
2023-05-19T07:23:41.485Z,41.68
2023-05-19T07:26:08.097Z,42.19
2023-05-19T07:28:34.776Z,41.76
2023-05-19T07:31:01.559Z,42.01
2023-05-19T07:33:28.225Z,41.65
2023-05-19T07:35:54.911Z,41.73
2023-05-19T07:38:21.666Z,42.12
2023-05-19T07:40:48.294Z,42.00
2023-05-19T07:43:14.992Z,41.81
2023-05-19T07:45:41.707Z,41.04
2023-05-19T07:48:08.471Z,39.84
2023-05-19T07:50:35.112Z,39.54
2023-05-19T07:53:03.000Z,38.86
2023-05-19T07:55:29.691Z,39.53
2023-05-19T07:57:56.315Z,39.22
2023-05-19T08:00:23.035Z,39.72
2023-05-19T08:02:49.792Z,39.41
2023-05-19T08:05:16.392Z,39.70
2023-05-19T08:07:43.045Z,39.55
2023-05-19T08:10:09.706Z,39.70
2023-05-19T08:12:36.404Z,39.55
2023-05-19T08:15:03.111Z,39.30
2023-05-19T08:17:29.797Z,39.58
2023-05-19T08:19:56.453Z,39.36
2023-05-19T08:22:23.149Z,39.24
2023-05-19T08:24:51.643Z,38.93
2023-05-19T08:27:18.455Z,38.96
2023-05-19T08:29:45.229Z,38.67
2023-05-19T08:32:13.355Z,39.23
2023-05-19T08:34:41.158Z,39.18
2023-05-19T08:37:07.935Z,38.82
2023-05-19T08:39:34.887Z,38.80
2023-05-19T08:42:02.397Z,38.73
2023-05-19T08:44:30.791Z,38.77
2023-05-19T08:47:00.655Z,38.58
2023-05-19T08:49:30.687Z,38.52
2023-05-19T08:52:12.219Z,38.47
2023-05-19T08:54:46.895Z,38.37
2023-05-19T08:57:13.696Z,38.59
2023-05-19T08:59:41.092Z,38.63
2023-05-19T09:02:08.898Z,38.87
2023-05-19T09:04:35.823Z,38.43
2023-05-19T09:07:03.956Z,38.79
2023-05-19T09:09:30.727Z,38.44
2023-05-19T09:11:58.012Z,38.61
2023-05-19T09:14:24.607Z,38.73
2023-05-19T09:16:52.815Z,38.77
2023-05-19T09:19:20.847Z,38.67
2023-05-19T09:21:59.468Z,38.86
2023-05-19T09:24:26.240Z,39.28
2023-05-19T09:26:56.068Z,39.25
2023-05-19T09:29:23.829Z,39.30
2023-05-19T09:31:54.795Z,39.50
2023-05-19T09:34:23.664Z,39.10
2023-05-19T09:36:51.652Z,39.11
2023-05-19T09:39:19.786Z,39.55
2023-05-19T09:41:46.757Z,39.99
2023-05-19T09:44:22.150Z,40.14
2023-05-19T09:46:50.563Z,40.53
2023-05-19T09:49:29.489Z,40.75
2023-05-19T09:51:57.663Z,40.98
2023-05-19T09:54:25.245Z,41.04
2023-05-19T09:57:02.330Z,41.24
2023-05-19T09:59:32.325Z,40.99
2023-05-19T10:02:00.992Z,41.42
2023-05-19T10:04:29.221Z,41.59
2023-05-19T10:06:59.460Z,41.52
2023-05-19T10:09:27.563Z,41.57
2023-05-19T10:11:55.816Z,41.76
2023-05-19T10:14:24.565Z,41.09
2023-05-19T10:16:52.736Z,41.42
2023-05-19T10:19:26.190Z,41.94
2023-05-19T10:21:53.586Z,41.93
2023-05-19T10:24:21.316Z,41.96
2023-05-19T10:27:07.862Z,42.08
2023-05-19T10:29:49.217Z,41.63
2023-05-19T10:32:20.199Z,41.89
2023-05-19T10:34:53.373Z,41.97
2023-05-19T10:37:33.060Z,41.66
2023-05-19T10:40:00.614Z,41.97
2023-05-19T10:42:41.065Z,41.61
2023-05-19T10:45:18.343Z,41.07
2023-05-19T10:47:45.237Z,41.37
2023-05-19T10:50:12.220Z,41.38
2023-05-19T10:52:40.226Z,41.93
2023-05-19T10:55:15.632Z,41.88
2023-05-19T10:57:54.443Z,41.57
2023-05-19T11:00:28.451Z,42.68
2023-05-19T11:06:25.730Z,42.83
2023-05-19T11:08:53.726Z,42.83
2023-05-19T11:11:21.071Z,42.70
2023-05-19T11:13:51.952Z,42.30
2023-05-19T11:16:20.155Z,43.40
2023-05-19T11:18:49.684Z,43.40
2023-05-19T11:21:16.704Z,42.71
2023-05-19T11:23:44.018Z,43.11
2023-05-19T11:26:10.786Z,42.72
2023-05-19T11:28:37.657Z,42.49
2023-05-19T11:31:07.981Z,42.45
2023-05-19T11:33:34.770Z,42.26
2023-05-19T11:36:01.567Z,42.63
2023-05-19T11:38:29.849Z,42.57
2023-05-19T11:40:57.173Z,42.45
2023-05-19T11:43:24.877Z,42.61
2023-05-19T11:45:51.933Z,42.29
2023-05-19T11:48:21.569Z,42.65
2023-05-19T11:50:48.378Z,42.69
2023-05-19T11:53:16.672Z,42.47
2023-05-19T11:55:46.700Z,42.61
2023-05-19T11:58:14.525Z,42.44
2023-05-19T12:00:42.949Z,42.61
2023-05-19T12:03:09.967Z,42.05
2023-05-19T12:05:42.022Z,42.21
2023-05-19T12:08:11.133Z,42.44
2023-05-19T12:10:38.730Z,42.32
2023-05-19T12:13:08.026Z,42.06
2023-05-19T12:15:35.149Z,42.31
2023-05-19T12:18:02.705Z,42.04
2023-05-19T12:20:32.522Z,41.91
2023-05-19T12:23:00.407Z,42.13
2023-05-19T12:25:27.923Z,42.50
2023-05-19T12:28:04.500Z,42.53
2023-05-19T12:30:32.190Z,42.33
2023-05-19T12:32:59.468Z,42.62
2023-05-19T12:35:28.089Z,42.45
2023-05-19T12:37:54.885Z,42.03
2023-05-19T12:40:22.069Z,42.46
2023-05-19T12:42:52.081Z,42.65
2023-05-19T12:45:22.804Z,42.34
2023-05-19T12:47:50.426Z,42.35
2023-05-19T12:50:17.337Z,42.16
2023-05-19T12:52:46.235Z,41.65
2023-05-19T12:55:14.131Z,42.20
2023-05-19T12:57:42.843Z,41.65
2023-05-19T13:00:19.300Z,42.19
2023-05-19T13:03:06.032Z,41.69
2023-05-19T13:05:38.419Z,41.98
2023-05-19T13:08:05.013Z,42.06
2023-05-19T13:10:32.951Z,41.74
2023-05-19T13:13:00.667Z,41.75
2023-05-19T13:15:29.423Z,42.01
2023-05-19T13:17:56.151Z,41.77
2023-05-19T13:20:24.261Z,41.84
2023-05-19T13:22:51.864Z,42.09
2023-05-19T13:25:18.617Z,41.74
2023-05-19T13:27:46.089Z,41.50
2023-05-19T13:30:12.759Z,41.32
2023-05-19T13:32:39.775Z,41.83
2023-05-19T13:35:06.796Z,41.51
2023-05-19T13:37:33.609Z,41.54
2023-05-19T13:40:00.400Z,41.64
2023-05-19T13:42:27.071Z,41.91
2023-05-19T13:44:57.496Z,41.53
2023-05-19T13:47:24.636Z,41.65
2023-05-19T13:49:51.780Z,41.50
2023-05-19T13:52:20.570Z,41.02
2023-05-19T13:54:48.197Z,41.16
2023-05-19T13:57:15.655Z,41.42
2023-05-19T13:59:57.243Z,41.34
2023-05-19T14:02:27.505Z,41.35
2023-05-19T14:04:54.269Z,41.12
2023-05-19T14:07:21.174Z,41.35
2023-05-19T14:09:47.828Z,41.13
2023-05-19T14:12:15.380Z,41.07
2023-05-19T14:14:41.995Z,41.16
2023-05-19T14:17:08.687Z,41.15
2023-05-19T14:19:35.364Z,41.04
2023-05-19T14:22:02.012Z,41.20
2023-05-19T14:24:28.581Z,41.22
2023-05-19T14:26:55.271Z,41.39
2023-05-19T14:29:21.990Z,41.17
2023-05-19T14:31:48.729Z,41.50
2023-05-19T14:34:17.861Z,41.38
2023-05-19T14:36:44.704Z,41.37
2023-05-19T14:39:11.927Z,41.65
2023-05-19T14:41:38.604Z,41.51
2023-05-19T14:44:05.595Z,41.39
2023-05-19T14:46:32.341Z,41.48
2023-05-19T14:48:58.968Z,41.60
2023-05-19T14:51:25.616Z,41.72
2023-05-19T14:53:52.314Z,41.66
2023-05-19T14:56:18.970Z,41.58
2023-05-19T14:58:45.584Z,41.63
2023-05-19T15:01:12.431Z,41.57
2023-05-19T15:03:39.265Z,41.79
2023-05-19T15:06:10.580Z,41.57
2023-05-19T15:08:37.831Z,41.66
2023-05-19T15:11:04.644Z,42.03
2023-05-19T15:13:31.351Z,41.69
2023-05-19T15:16:12.464Z,41.48
2023-05-19T15:18:42.870Z,41.72
2023-05-19T15:21:09.699Z,41.82
2023-05-19T15:23:36.412Z,41.53
2023-05-19T15:26:03.061Z,41.77
2023-05-19T15:28:29.827Z,41.75
2023-05-19T15:30:56.456Z,41.83
2023-05-19T15:33:23.108Z,41.88
2023-05-19T15:35:51.687Z,41.92
2023-05-19T15:38:19.346Z,41.71
2023-05-19T15:40:46.700Z,41.75
2023-05-19T15:43:13.700Z,41.87
2023-05-19T15:45:40.786Z,41.99
2023-05-19T15:48:07.591Z,41.84
2023-05-19T15:50:34.752Z,41.75
2023-05-19T15:53:01.813Z,41.71
2023-05-19T15:55:28.380Z,42.15
2023-05-19T15:57:55.120Z,41.85
2023-05-19T16:00:21.764Z,41.86
2023-05-19T16:02:48.571Z,41.89
2023-05-19T16:05:15.451Z,41.92
2023-05-19T16:07:42.289Z,41.83
2023-05-19T16:10:09.242Z,41.73
2023-05-19T16:12:36.679Z,41.38
2023-05-19T16:15:03.808Z,41.83
2023-05-19T16:17:30.661Z,41.50
2023-05-19T16:19:57.416Z,41.70
2023-05-19T16:22:24.876Z,41.83
2023-05-19T16:24:52.179Z,41.55
2023-05-19T16:27:19.067Z,41.63
2023-05-19T16:29:45.770Z,41.85
2023-05-19T16:32:12.739Z,41.63
2023-05-19T16:34:39.592Z,41.68
2023-05-19T16:37:06.294Z,42.08
2023-05-19T16:39:32.980Z,42.29
2023-05-19T16:41:59.600Z,42.00
2023-05-19T16:44:26.313Z,41.90
2023-05-19T16:46:53.021Z,41.80
2023-05-19T16:49:19.630Z,42.05
2023-05-19T16:51:47.544Z,42.10
2023-05-19T16:54:15.597Z,41.93
2023-05-19T16:56:42.374Z,42.17
2023-05-19T16:59:09.359Z,41.81
2023-05-19T17:01:36.149Z,42.14
2023-05-19T17:04:02.862Z,42.13
2023-05-19T17:06:29.573Z,42.08
2023-05-19T17:08:56.159Z,42.06
2023-05-19T17:11:22.956Z,41.93
2023-05-19T17:13:49.575Z,42.51
2023-05-19T17:16:16.345Z,42.05
2023-05-19T17:18:43.772Z,42.48
2023-05-19T17:21:10.691Z,42.58
2023-05-19T17:23:38.138Z,42.35
2023-05-19T17:26:05.040Z,42.36
2023-05-19T17:28:31.785Z,42.41
2023-05-19T17:30:58.463Z,42.44
2023-05-19T17:33:25.189Z,42.23
2023-05-19T17:35:51.844Z,42.48
2023-05-19T17:38:18.490Z,42.58
2023-05-19T17:40:45.100Z,42.57
2023-05-19T17:43:11.687Z,42.28
2023-05-19T17:45:38.385Z,42.34
2023-05-19T17:48:05.674Z,42.28
2023-05-19T17:50:32.514Z,42.25
2023-05-19T17:52:59.625Z,42.32
2023-05-19T17:55:29.827Z,42.25
2023-05-19T17:57:57.624Z,42.65
2023-05-19T18:00:25.286Z,42.70
2023-05-19T18:02:52.812Z,42.63
2023-05-19T18:05:19.998Z,42.47
2023-05-19T18:07:47.123Z,42.61
2023-05-19T18:10:15.257Z,42.40
2023-05-19T18:12:42.087Z,42.36
2023-05-19T18:15:08.952Z,42.68
2023-05-19T18:17:35.718Z,42.77
2023-05-19T18:20:02.510Z,42.75
2023-05-19T18:22:29.151Z,42.86
2023-05-19T18:24:57.523Z,42.56
2023-05-19T18:27:24.198Z,42.54
2023-05-19T18:29:51.725Z,42.61
2023-05-19T18:32:18.818Z,42.74
2023-05-19T18:34:45.726Z,42.96
2023-05-19T18:37:12.378Z,42.48
2023-05-19T18:39:39.032Z,42.59
2023-05-19T18:42:06.143Z,42.75
2023-05-19T18:44:33.866Z,42.43
2023-05-19T18:47:00.514Z,42.46
2023-05-19T18:49:27.105Z,42.51
2023-05-19T18:51:53.895Z,42.59
2023-05-19T18:54:21.656Z,42.84
2023-05-19T18:56:48.311Z,42.86
2023-05-19T18:59:14.920Z,42.90
2023-05-19T19:01:42.733Z,42.49
2023-05-19T19:04:09.730Z,42.83
2023-05-19T19:06:36.456Z,42.94
2023-05-19T19:09:03.414Z,42.58
2023-05-19T19:11:30.094Z,42.81
2023-05-19T19:13:56.751Z,42.98
2023-05-19T19:16:23.575Z,42.94
2023-05-19T19:18:50.323Z,42.98
2023-05-19T19:21:19.204Z,43.39
2023-05-19T19:23:46.042Z,43.04
2023-05-19T19:26:12.767Z,43.39
2023-05-19T19:28:39.367Z,43.57
2023-05-19T19:31:06.049Z,43.37
2023-05-19T19:33:32.727Z,43.07
2023-05-19T19:35:59.473Z,43.51
2023-05-19T19:38:26.139Z,43.58
2023-05-19T19:40:52.941Z,43.48
2023-05-19T19:43:19.708Z,43.25
2023-05-19T19:45:46.382Z,43.18
2023-05-19T19:48:13.030Z,43.16
2023-05-19T19:50:39.702Z,43.59
2023-05-19T19:53:06.546Z,43.16
2023-05-19T19:55:33.203Z,43.65
2023-05-19T19:57:59.790Z,43.68
2023-05-19T20:00:26.511Z,43.27
2023-05-19T20:03:04.352Z,43.75
2023-05-19T20:05:32.089Z,43.32
2023-05-19T20:07:58.772Z,43.50
2023-05-19T20:10:25.459Z,43.37
2023-05-19T20:12:52.307Z,43.71
2023-05-19T20:15:18.979Z,43.23
2023-05-19T20:17:45.772Z,43.41
2023-05-19T20:20:12.919Z,43.55
2023-05-19T20:22:39.665Z,43.46
2023-05-19T20:25:06.851Z,43.28
2023-05-19T20:27:33.650Z,43.71
2023-05-19T20:30:00.742Z,43.35
2023-05-19T20:32:27.445Z,43.46
2023-05-19T20:34:54.165Z,43.36
2023-05-19T20:37:22.052Z,43.31
2023-05-19T20:39:48.686Z,43.64
2023-05-19T20:42:15.392Z,43.70
2023-05-19T20:44:42.378Z,43.45
2023-05-19T20:47:09.020Z,43.10
2023-05-19T20:49:35.923Z,43.30
2023-05-19T20:52:02.590Z,43.17
2023-05-19T20:54:29.274Z,43.53
2023-05-19T20:56:56.003Z,43.77
2023-05-19T20:59:22.733Z,43.59
2023-05-19T21:01:49.464Z,43.30
2023-05-19T21:04:16.357Z,43.19
2023-05-19T21:06:42.959Z,43.32
2023-05-19T21:09:10.698Z,43.75
2023-05-19T21:11:37.430Z,43.71
2023-05-19T21:14:04.407Z,43.68
2023-05-19T21:16:31.864Z,43.55
2023-05-19T21:18:58.677Z,43.61
2023-05-19T21:21:25.587Z,43.58
2023-05-19T21:23:52.260Z,43.38
2023-05-19T21:26:18.951Z,43.50
2023-05-19T21:28:46.199Z,43.65
2023-05-19T21:31:12.858Z,43.48
2023-05-19T21:33:39.670Z,43.28
2023-05-19T21:36:06.610Z,43.46
2023-05-19T21:38:33.247Z,43.60
2023-05-19T21:40:59.910Z,43.30
2023-05-19T21:43:26.752Z,43.49
2023-05-19T21:45:53.323Z,43.33
2023-05-19T21:48:20.069Z,43.45
2023-05-19T21:50:46.679Z,43.63
2023-05-19T21:53:13.330Z,43.63
2023-05-19T21:55:40.040Z,43.65
2023-05-19T21:58:06.712Z,43.66
2023-05-19T22:00:34.162Z,43.41
2023-05-19T22:03:01.131Z,43.37
2023-05-19T22:05:29.781Z,43.98
2023-05-19T22:07:56.621Z,43.88
2023-05-19T22:10:23.347Z,43.64
2023-05-19T22:12:49.987Z,43.40
2023-05-19T22:15:16.551Z,43.37
2023-05-19T22:17:43.346Z,43.76
2023-05-19T22:20:10.471Z,43.78
2023-05-19T22:22:37.143Z,43.50
2023-05-19T22:25:04.703Z,43.83
2023-05-19T22:27:31.514Z,43.56
2023-05-19T22:29:59.904Z,43.46
2023-05-19T22:32:26.709Z,43.49
2023-05-19T22:34:53.455Z,43.57
2023-05-19T22:37:22.312Z,43.92
2023-05-19T22:39:48.973Z,43.59
2023-05-19T22:42:15.758Z,43.89
2023-05-19T22:44:43.352Z,43.71
2023-05-19T22:47:13.415Z,43.51
2023-05-19T22:49:40.974Z,43.57
2023-05-19T22:52:09.128Z,43.76
2023-05-19T22:54:35.763Z,43.60
2023-05-19T22:57:03.308Z,43.62
2023-05-19T22:59:30.062Z,43.66
2023-05-19T23:01:56.851Z,43.46
2023-05-19T23:04:23.588Z,43.68
2023-05-19T23:06:50.425Z,43.69
2023-05-19T23:09:17.978Z,43.28
2023-05-19T23:11:45.150Z,43.38
2023-05-19T23:14:11.823Z,43.66
2023-05-19T23:16:38.807Z,43.92
2023-05-19T23:19:05.480Z,43.55
2023-05-19T23:21:32.455Z,43.73
2023-05-19T23:23:59.520Z,43.73
2023-05-19T23:26:26.925Z,43.47
2023-05-19T23:28:53.567Z,43.89
2023-05-19T23:31:20.325Z,43.61
2023-05-19T23:33:47.022Z,43.34
2023-05-19T23:36:13.719Z,43.33
2023-05-19T23:38:40.318Z,43.45
2023-05-19T23:41:07.028Z,43.38
2023-05-19T23:43:33.596Z,43.83
2023-05-19T23:46:00.614Z,43.79
2023-05-19T23:48:31.242Z,43.30
2023-05-19T23:50:58.645Z,43.28
2023-05-19T23:53:25.283Z,43.46
2023-05-19T23:55:51.966Z,43.52
2023-05-19T23:58:18.758Z,43.53
